Terminal Aerodrome Forecast
Issued by NWS Springfield, MO

Home | Current Version | Previous Version | Text Only | Print | Product List | Glossary On
Versions: 1 2 3 4 5 6 7 8 9 10 11 12 13 14 15
971
FTUS43 KSGF 220716 AAB
TAFSGF
TAF AMD
KSGF 220716Z 2207/2306 02009G18KT P6SM VCSH OVC012
     FM220800 02011G19KT 5SM BR VCSH BKN008
      TEMPO 2208/2211 3SM -DZ BR
     FM221100 04012G21KT P6SM SHRA OVC008
     FM221800 01011G19KT P6SM VCSH OVC010
     FM222200 36010KT P6SM OVC020=

USA.gov is the U.S. government's official web portal to all federal, state and local government web resources and services.